sensor_id;sensor_type;location;lat;lon;timestamp;temperature;humidity
843;DHT22;407;48.884;9.126;2023-08-20T00:00:19;23.60;1.00
843;DHT22;407;48.884;9.126;2023-08-20T00:02:46;23.40;1.00
843;DHT22;407;48.884;9.126;2023-08-20T00:05:15;23.50;1.00
843;DHT22;407;48.884;9.126;2023-08-20T00:07:41;23.50;1.00
843;DHT22;407;48.884;9.126;2023-08-20T00:10:07;23.50;1.00
843;DHT22;407;48.884;9.126;2023-08-20T00:12:33;23.50;1.00
843;DHT22;407;48.884;9.126;2023-08-20T00:15:03;23.50;1.00
843;DHT22;407;48.884;9.126;2023-08-20T00:17:33;23.50;1.00
843;DHT22;407;48.884;9.126;2023-08-20T00:19:59;23.40;1.00
843;DHT22;407;48.884;9.126;2023-08-20T00:22:25;23.40;1.00
843;DHT22;407;48.884;9.126;2023-08-20T00:24:53;23.30;1.00
843;DHT22;407;48.884;9.126;2023-08-20T00:27:19;23.30;1.00
843;DHT22;407;48.884;9.126;2023-08-20T00:29:46;23.30;1.00
843;DHT22;407;48.884;9.126;2023-08-20T00:32:11;23.30;1.00
843;DHT22;407;48.884;9.126;2023-08-20T00:34:37;23.30;1.00
843;DHT22;407;48.884;9.126;2023-08-20T00:37:03;23.30;1.00
843;DHT22;407;48.884;9.126;2023-08-20T00:39:29;23.30;1.00
843;DHT22;407;48.884;9.126;2023-08-20T00:41:55;23.20;1.00
843;DHT22;407;48.884;9.126;2023-08-20T00:44:21;23.30;1.00
843;DHT22;407;48.884;9.126;2023-08-20T00:46:47;23.30;1.00
843;DHT22;407;48.884;9.126;2023-08-20T00:49:12;23.20;1.00
843;DHT22;407;48.884;9.126;2023-08-20T00:51:38;23.30;1.00
843;DHT22;407;48.884;9.126;2023-08-20T00:54:05;23.40;1.00
843;DHT22;407;48.884;9.126;2023-08-20T00:56:30;23.50;1.00
843;DHT22;407;48.884;9.126;2023-08-20T00:58:56;23.50;1.00
843;DHT22;407;48.884;9.126;2023-08-20T01:01:22;23.30;1.00
843;DHT22;407;48.884;9.126;2023-08-20T01:03:48;23.20;1.00
843;DHT22;407;48.884;9.126;2023-08-20T01:06:39;23.30;1.00
843;DHT22;407;48.884;9.126;2023-08-20T01:12:03;23.40;1.00
843;DHT22;407;48.884;9.126;2023-08-20T01:14:28;23.20;1.00
843;DHT22;407;48.884;9.126;2023-08-20T01:16:54;23.10;1.00
843;DHT22;407;48.884;9.126;2023-08-20T01:19:21;23.10;1.00
843;DHT22;407;48.884;9.126;2023-08-20T01:27:25;23.10;1.00
843;DHT22;407;48.884;9.126;2023-08-20T01:29:52;23.10;1.00
843;DHT22;407;48.884;9.126;2023-08-20T01:32:18;23.00;1.00
843;DHT22;407;48.884;9.126;2023-08-20T01:34:45;23.00;1.00
843;DHT22;407;48.884;9.126;2023-08-20T01:37:11;23.10;1.00
843;DHT22;407;48.884;9.126;2023-08-20T01:39:37;23.10;1.00
843;DHT22;407;48.884;9.126;2023-08-20T01:42:03;23.10;1.00
843;DHT22;407;48.884;9.126;2023-08-20T01:44:29;23.10;1.00
843;DHT22;407;48.884;9.126;2023-08-20T01:46:54;23.00;1.00
843;DHT22;407;48.884;9.126;2023-08-20T01:49:20;23.00;1.00
843;DHT22;407;48.884;9.126;2023-08-20T01:51:45;23.00;1.00
843;DHT22;407;48.884;9.126;2023-08-20T01:54:11;22.90;1.20
843;DHT22;407;48.884;9.126;2023-08-20T01:56:36;22.90;12.50
843;DHT22;407;48.884;9.126;2023-08-20T01:59:02;22.90;18.20
843;DHT22;407;48.884;9.126;2023-08-20T02:01:27;22.80;25.50
843;DHT22;407;48.884;9.126;2023-08-20T02:03:53;22.70;33.80
843;DHT22;407;48.884;9.126;2023-08-20T02:06:19;22.70;40.00
843;DHT22;407;48.884;9.126;2023-08-20T02:08:44;22.70;60.40
843;DHT22;407;48.884;9.126;2023-08-20T02:11:10;22.70;52.40
843;DHT22;407;48.884;9.126;2023-08-20T02:13:35;22.70;48.60
843;DHT22;407;48.884;9.126;2023-08-20T02:16:01;22.70;53.00
843;DHT22;407;48.884;9.126;2023-08-20T02:18:28;22.80;31.70
843;DHT22;407;48.884;9.126;2023-08-20T02:20:54;22.70;22.60
843;DHT22;407;48.884;9.126;2023-08-20T02:23:19;22.60;31.00
843;DHT22;407;48.884;9.126;2023-08-20T02:25:46;22.50;52.20
843;DHT22;407;48.884;9.126;2023-08-20T02:28:12;22.50;71.80
843;DHT22;407;48.884;9.126;2023-08-20T02:30:44;22.50;73.00
843;DHT22;407;48.884;9.126;2023-08-20T02:33:10;22.60;43.10
843;DHT22;407;48.884;9.126;2023-08-20T02:35:39;22.60;33.00
843;DHT22;407;48.884;9.126;2023-08-20T02:38:06;22.50;49.70
843;DHT22;407;48.884;9.126;2023-08-20T02:40:31;22.40;67.00
843;DHT22;407;48.884;9.126;2023-08-20T02:42:57;22.40;79.20
843;DHT22;407;48.884;9.126;2023-08-20T02:45:22;22.40;84.40
843;DHT22;407;48.884;9.126;2023-08-20T02:47:48;22.40;99.90
843;DHT22;407;48.884;9.126;2023-08-20T02:50:14;22.40;97.50
843;DHT22;407;48.884;9.126;2023-08-20T02:52:42;22.40;99.90
843;DHT22;407;48.884;9.126;2023-08-20T02:55:07;22.40;91.80
843;DHT22;407;48.884;9.126;2023-08-20T02:57:33;22.40;94.00
843;DHT22;407;48.884;9.126;2023-08-20T02:59:59;22.40;85.00
843;DHT22;407;48.884;9.126;2023-08-20T03:02:24;22.30;99.90
843;DHT22;407;48.884;9.126;2023-08-20T03:04:50;22.30;99.90
843;DHT22;407;48.884;9.126;2023-08-20T03:07:15;22.40;94.90
843;DHT22;407;48.884;9.126;2023-08-20T03:09:41;22.40;93.40
843;DHT22;407;48.884;9.126;2023-08-20T03:12:06;22.40;47.60
843;DHT22;407;48.884;9.126;2023-08-20T03:14:32;22.30;50.50
843;DHT22;407;48.884;9.126;2023-08-20T03:16:58;22.20;78.90
843;DHT22;407;48.884;9.126;2023-08-20T03:19:23;22.30;59.70
843;DHT22;407;48.884;9.126;2023-08-20T03:21:49;22.30;37.60
843;DHT22;407;48.884;9.126;2023-08-20T03:24:14;22.30;28.90
843;DHT22;407;48.884;9.126;2023-08-20T03:26:39;22.20;28.40
843;DHT22;407;48.884;9.126;2023-08-20T03:29:05;22.20;37.50
843;DHT22;407;48.884;9.126;2023-08-20T03:31:31;22.10;52.60
843;DHT22;407;48.884;9.126;2023-08-20T03:33:56;22.20;72.90
843;DHT22;407;48.884;9.126;2023-08-20T03:36:22;22.30;55.20
843;DHT22;407;48.884;9.126;2023-08-20T03:38:47;22.30;47.00
843;DHT22;407;48.884;9.126;2023-08-20T03:41:13;22.40;43.40
843;DHT22;407;48.884;9.126;2023-08-20T03:43:39;22.40;34.20
843;DHT22;407;48.884;9.126;2023-08-20T03:46:04;22.30;18.30
843;DHT22;407;48.884;9.126;2023-08-20T03:48:30;22.20;23.60
843;DHT22;407;48.884;9.126;2023-08-20T03:50:56;22.10;25.40
843;DHT22;407;48.884;9.126;2023-08-20T03:53:21;22.00;68.60
843;DHT22;407;48.884;9.126;2023-08-20T03:55:48;22.00;99.90
843;DHT22;407;48.884;9.126;2023-08-20T03:58:13;22.00;87.50
843;DHT22;407;48.884;9.126;2023-08-20T04:00:39;22.00;98.10
843;DHT22;407;48.884;9.126;2023-08-20T04:03:04;22.10;99.90
843;DHT22;407;48.884;9.126;2023-08-20T04:05:36;22.10;98.60
843;DHT22;407;48.884;9.126;2023-08-20T04:08:02;22.20;73.20
843;DHT22;407;48.884;9.126;2023-08-20T04:10:27;22.20;43.60
843;DHT22;407;48.884;9.126;2023-08-20T04:12:53;22.10;54.20
843;DHT22;407;48.884;9.126;2023-08-20T04:15:18;22.00;96.00
843;DHT22;407;48.884;9.126;2023-08-20T04:17:44;22.00;99.90
843;DHT22;407;48.884;9.126;2023-08-20T04:20:09;22.10;96.20
843;DHT22;407;48.884;9.126;2023-08-20T04:22:35;22.10;75.60
843;DHT22;407;48.884;9.126;2023-08-20T04:25:02;22.20;79.90
843;DHT22;407;48.884;9.126;2023-08-20T04:27:28;22.20;48.50
843;DHT22;407;48.884;9.126;2023-08-20T04:29:53;22.20;16.00
843;DHT22;407;48.884;9.126;2023-08-20T04:32:19;22.20;21.50
843;DHT22;407;48.884;9.126;2023-08-20T04:34:44;22.20;25.90
843;DHT22;407;48.884;9.126;2023-08-20T04:37:11;22.00;53.80
843;DHT22;407;48.884;9.126;2023-08-20T04:39:38;22.00;53.20
843;DHT22;407;48.884;9.126;2023-08-20T04:42:03;22.00;45.30
843;DHT22;407;48.884;9.126;2023-08-20T04:44:29;22.00;59.30
843;DHT22;407;48.884;9.126;2023-08-20T04:46:54;21.90;92.10
843;DHT22;407;48.884;9.126;2023-08-20T04:49:20;21.90;99.90
843;DHT22;407;48.884;9.126;2023-08-20T04:51:45;22.00;99.90
843;DHT22;407;48.884;9.126;2023-08-20T04:54:11;22.10;74.00
843;DHT22;407;48.884;9.126;2023-08-20T04:56:36;22.10;59.30
843;DHT22;407;48.884;9.126;2023-08-20T04:59:02;22.10;74.20
843;DHT22;407;48.884;9.126;2023-08-20T05:01:27;22.10;69.50
843;DHT22;407;48.884;9.126;2023-08-20T05:03:53;22.20;62.90
843;DHT22;407;48.884;9.126;2023-08-20T05:06:18;22.20;93.50
843;DHT22;407;48.884;9.126;2023-08-20T05:08:44;22.30;99.90
843;DHT22;407;48.884;9.126;2023-08-20T05:11:09;22.60;90.00
843;DHT22;407;48.884;9.126;2023-08-20T05:13:35;22.80;37.60
843;DHT22;407;48.884;9.126;2023-08-20T05:16:00;23.00;10.70
843;DHT22;407;48.884;9.126;2023-08-20T05:18:26;23.00;1.00
843;DHT22;407;48.884;9.126;2023-08-20T05:20:52;23.00;1.00
843;DHT22;407;48.884;9.126;2023-08-20T05:23:17;23.20;1.00
843;DHT22;407;48.884;9.126;2023-08-20T05:25:43;23.30;1.00
843;DHT22;407;48.884;9.126;2023-08-20T05:28:08;23.40;1.00
843;DHT22;407;48.884;9.126;2023-08-20T05:30:34;23.30;1.00
843;DHT22;407;48.884;9.126;2023-08-20T05:32:59;23.40;1.00
843;DHT22;407;48.884;9.126;2023-08-20T05:35:25;23.70;1.00
843;DHT22;407;48.884;9.126;2023-08-20T05:37:51;23.90;1.00
843;DHT22;407;48.884;9.126;2023-08-20T05:40:16;24.10;1.00
843;DHT22;407;48.884;9.126;2023-08-20T05:42:42;24.10;1.00
843;DHT22;407;48.884;9.126;2023-08-20T05:45:07;24.20;1.00
843;DHT22;407;48.884;9.126;2023-08-20T05:47:33;24.50;1.00
843;DHT22;407;48.884;9.126;2023-08-20T05:49:58;24.90;1.00
843;DHT22;407;48.884;9.126;2023-08-20T05:52:24;25.80;99.90
843;DHT22;407;48.884;9.126;2023-08-20T05:54:49;27.00;1.00
843;DHT22;407;48.884;9.126;2023-08-20T05:57:16;28.10;1.00
843;DHT22;407;48.884;9.126;2023-08-20T05:59:41;29.10;46.90
843;DHT22;407;48.884;9.126;2023-08-20T06:02:07;29.90;99.90
843;DHT22;407;48.884;9.126;2023-08-20T06:04:32;30.70;99.90
843;DHT22;407;48.884;9.126;2023-08-20T06:06:58;30.90;1.00
843;DHT22;407;48.884;9.126;2023-08-20T06:09:24;31.30;1.00
843;DHT22;407;48.884;9.126;2023-08-20T06:11:49;31.30;1.00
843;DHT22;407;48.884;9.126;2023-08-20T06:14:16;31.10;1.00
843;DHT22;407;48.884;9.126;2023-08-20T06:16:41;30.90;1.00
843;DHT22;407;48.884;9.126;2023-08-20T06:19:07;31.10;1.00
843;DHT22;407;48.884;9.126;2023-08-20T06:21:32;30.90;1.00
843;DHT22;407;48.884;9.126;2023-08-20T06:23:58;30.40;1.00
843;DHT22;407;48.884;9.126;2023-08-20T06:26:24;30.80;1.00
843;DHT22;407;48.884;9.126;2023-08-20T06:28:49;31.40;1.00
843;DHT22;407;48.884;9.126;2023-08-20T06:31:15;31.80;1.00
843;DHT22;407;48.884;9.126;2023-08-20T06:33:40;32.10;1.00
843;DHT22;407;48.884;9.126;2023-08-20T06:36:06;32.10;1.00
843;DHT22;407;48.884;9.126;2023-08-20T06:38:31;31.90;1.00
843;DHT22;407;48.884;9.126;2023-08-20T06:40:58;32.00;1.00
843;DHT22;407;48.884;9.126;2023-08-20T06:43:24;31.80;1.00
843;DHT22;407;48.884;9.126;2023-08-20T06:45:49;31.80;1.00
843;DHT22;407;48.884;9.126;2023-08-20T06:48:15;31.40;1.00
843;DHT22;407;48.884;9.126;2023-08-20T06:50:41;30.90;1.00
843;DHT22;407;48.884;9.126;2023-08-20T06:53:07;30.80;1.00
843;DHT22;407;48.884;9.126;2023-08-20T06:55:32;31.60;1.00
843;DHT22;407;48.884;9.126;2023-08-20T06:57:58;32.20;47.80
843;DHT22;407;48.884;9.126;2023-08-20T07:00:23;32.70;1.00
843;DHT22;407;48.884;9.126;2023-08-20T07:02:49;32.10;1.00
843;DHT22;407;48.884;9.126;2023-08-20T07:05:14;31.90;1.00
843;DHT22;407;48.884;9.126;2023-08-20T07:07:40;32.30;1.00
843;DHT22;407;48.884;9.126;2023-08-20T07:10:06;33.40;18.50
843;DHT22;407;48.884;9.126;2023-08-20T07:29:37;34.30;99.90
843;DHT22;407;48.884;9.126;2023-08-20T07:32:03;35.20;99.90
843;DHT22;407;48.884;9.126;2023-08-20T07:34:29;35.20;99.90
843;DHT22;407;48.884;9.126;2023-08-20T07:36:56;34.40;99.90
843;DHT22;407;48.884;9.126;2023-08-20T07:39:22;33.80;99.90
843;DHT22;407;48.884;9.126;2023-08-20T07:41:47;33.30;99.90
843;DHT22;407;48.884;9.126;2023-08-20T07:44:13;34.10;99.90
843;DHT22;407;48.884;9.126;2023-08-20T07:46:39;34.20;99.90
843;DHT22;407;48.884;9.126;2023-08-20T07:49:04;33.50;99.90
843;DHT22;407;48.884;9.126;2023-08-20T07:51:30;33.00;99.90
843;DHT22;407;48.884;9.126;2023-08-20T07:53:55;32.40;99.90
843;DHT22;407;48.884;9.126;2023-08-20T07:56:23;33.00;99.90
843;DHT22;407;48.884;9.126;2023-08-20T07:58:49;34.60;99.90
843;DHT22;407;48.884;9.126;2023-08-20T08:01:14;35.70;99.90
843;DHT22;407;48.884;9.126;2023-08-20T08:03:40;36.40;99.90
843;DHT22;407;48.884;9.126;2023-08-20T08:06:05;37.10;99.90
843;DHT22;407;48.884;9.126;2023-08-20T08:08:31;37.40;99.90
843;DHT22;407;48.884;9.126;2023-08-20T08:10:56;37.60;99.90
843;DHT22;407;48.884;9.126;2023-08-20T08:13:23;37.90;99.90
843;DHT22;407;48.884;9.126;2023-08-20T08:15:50;37.30;99.90
843;DHT22;407;48.884;9.126;2023-08-20T08:18:15;36.40;99.90
843;DHT22;407;48.884;9.126;2023-08-20T08:20:41;35.90;99.90
843;DHT22;407;48.884;9.126;2023-08-20T08:23:07;35.40;99.90
843;DHT22;407;48.884;9.126;2023-08-20T08:25:32;35.70;99.90
843;DHT22;407;48.884;9.126;2023-08-20T08:27:58;36.30;99.90
843;DHT22;407;48.884;9.126;2023-08-20T08:30:23;36.60;99.90
843;DHT22;407;48.884;9.126;2023-08-20T08:32:49;37.60;99.90
843;DHT22;407;48.884;9.126;2023-08-20T08:35:16;37.60;99.90
843;DHT22;407;48.884;9.126;2023-08-20T08:37:41;37.80;99.90
843;DHT22;407;48.884;9.126;2023-08-20T08:40:08;38.20;99.90
843;DHT22;407;48.884;9.126;2023-08-20T08:42:34;39.60;99.90
843;DHT22;407;48.884;9.126;2023-08-20T08:45:00;39.90;99.90
843;DHT22;407;48.884;9.126;2023-08-20T08:47:26;39.50;99.90
843;DHT22;407;48.884;9.126;2023-08-20T08:49:55;38.80;99.90
843;DHT22;407;48.884;9.126;2023-08-20T08:52:22;38.30;99.90
843;DHT22;407;48.884;9.126;2023-08-20T08:54:48;38.20;99.90
843;DHT22;407;48.884;9.126;2023-08-20T08:57:14;38.60;99.90
843;DHT22;407;48.884;9.126;2023-08-20T08:59:41;38.40;99.90
843;DHT22;407;48.884;9.126;2023-08-20T09:02:09;38.50;99.90
843;DHT22;407;48.884;9.126;2023-08-20T09:04:41;38.70;99.90
843;DHT22;407;48.884;9.126;2023-08-20T09:07:11;38.60;99.90
843;DHT22;407;48.884;9.126;2023-08-20T09:09:42;38.70;99.90
843;DHT22;407;48.884;9.126;2023-08-20T09:12:18;39.90;99.90
843;DHT22;407;48.884;9.126;2023-08-20T09:14:48;40.10;99.90
843;DHT22;407;48.884;9.126;2023-08-20T09:17:15;40.30;99.90
843;DHT22;407;48.884;9.126;2023-08-20T09:19:43;40.60;99.90
843;DHT22;407;48.884;9.126;2023-08-20T09:22:14;41.00;99.90
843;DHT22;407;48.884;9.126;2023-08-20T09:24:51;41.00;99.90
843;DHT22;407;48.884;9.126;2023-08-20T09:27:17;41.00;99.90
843;DHT22;407;48.884;9.126;2023-08-20T09:29:48;41.10;99.90
843;DHT22;407;48.884;9.126;2023-08-20T09:32:18;41.30;99.90
843;DHT22;407;48.884;9.126;2023-08-20T09:34:45;41.50;99.90
843;DHT22;407;48.884;9.126;2023-08-20T09:37:12;42.30;99.90
843;DHT22;407;48.884;9.126;2023-08-20T09:39:38;41.90;99.90
843;DHT22;407;48.884;9.126;2023-08-20T09:42:05;41.70;99.90
843;DHT22;407;48.884;9.126;2023-08-20T09:44:34;41.80;99.90
843;DHT22;407;48.884;9.126;2023-08-20T09:47:02;41.60;99.90
843;DHT22;407;48.884;9.126;2023-08-20T09:49:29;40.90;99.90
843;DHT22;407;48.884;9.126;2023-08-20T09:51:58;40.60;99.90
843;DHT22;407;48.884;9.126;2023-08-20T09:57:07;40.70;99.90
843;DHT22;407;48.884;9.126;2023-08-20T09:59:37;40.30;99.90
843;DHT22;407;48.884;9.126;2023-08-20T10:02:04;40.40;99.90
843;DHT22;407;48.884;9.126;2023-08-20T10:04:30;41.00;99.90
843;DHT22;407;48.884;9.126;2023-08-20T10:06:57;41.90;99.90
843;DHT22;407;48.884;9.126;2023-08-20T10:09:24;42.40;99.90
843;DHT22;407;48.884;9.126;2023-08-20T10:11:50;43.00;99.90
843;DHT22;407;48.884;9.126;2023-08-20T10:14:16;42.70;99.90
843;DHT22;407;48.884;9.126;2023-08-20T10:16:41;42.00;99.90
843;DHT22;407;48.884;9.126;2023-08-20T10:19:07;41.00;99.90
843;DHT22;407;48.884;9.126;2023-08-20T10:21:33;39.90;99.90
843;DHT22;407;48.884;9.126;2023-08-20T10:24:06;40.00;99.90
843;DHT22;407;48.884;9.126;2023-08-20T10:26:33;41.00;99.90
843;DHT22;407;48.884;9.126;2023-08-20T10:29:34;41.70;99.90
843;DHT22;407;48.884;9.126;2023-08-20T10:32:00;41.70;99.90
843;DHT22;407;48.884;9.126;2023-08-20T10:34:35;41.00;99.90
843;DHT22;407;48.884;9.126;2023-08-20T10:37:02;40.80;99.90
843;DHT22;407;48.884;9.126;2023-08-20T10:39:28;40.80;99.90
843;DHT22;407;48.884;9.126;2023-08-20T10:45:05;40.00;99.90
843;DHT22;407;48.884;9.126;2023-08-20T10:50:08;38.90;99.90
843;DHT22;407;48.884;9.126;2023-08-20T10:52:40;38.50;99.90
843;DHT22;407;48.884;9.126;2023-08-20T10:55:07;38.00;99.90
843;DHT22;407;48.884;9.126;2023-08-20T10:57:35;37.60;99.90
843;DHT22;407;48.884;9.126;2023-08-20T11:00:04;37.00;1.00
843;DHT22;407;48.884;9.126;2023-08-20T11:02:41;36.90;1.00
843;DHT22;407;48.884;9.126;2023-08-20T11:05:20;37.10;1.00
843;DHT22;407;48.884;9.126;2023-08-20T11:07:49;36.80;1.00
843;DHT22;407;48.884;9.126;2023-08-20T11:10:16;36.70;1.00
843;DHT22;407;48.884;9.126;2023-08-20T11:12:48;36.80;1.00
843;DHT22;407;48.884;9.126;2023-08-20T11:15:13;36.90;1.00
843;DHT22;407;48.884;9.126;2023-08-20T11:17:44;36.90;1.00
843;DHT22;407;48.884;9.126;2023-08-20T11:20:10;37.00;1.00
843;DHT22;407;48.884;9.126;2023-08-20T11:22:38;36.90;1.00
843;DHT22;407;48.884;9.126;2023-08-20T11:25:04;36.90;1.00
843;DHT22;407;48.884;9.126;2023-08-20T11:27:30;36.80;1.00
843;DHT22;407;48.884;9.126;2023-08-20T11:29:57;36.60;1.00
843;DHT22;407;48.884;9.126;2023-08-20T11:32:23;36.10;1.00
843;DHT22;407;48.884;9.126;2023-08-20T11:34:49;35.70;99.90
843;DHT22;407;48.884;9.126;2023-08-20T11:37:20;35.80;99.90
843;DHT22;407;48.884;9.126;2023-08-20T11:39:48;36.10;99.90
843;DHT22;407;48.884;9.126;2023-08-20T11:42:13;36.20;99.90
843;DHT22;407;48.884;9.126;2023-08-20T11:44:44;36.10;99.90
843;DHT22;407;48.884;9.126;2023-08-20T11:47:17;36.20;99.90
843;DHT22;407;48.884;9.126;2023-08-20T11:49:43;36.00;99.90
843;DHT22;407;48.884;9.126;2023-08-20T11:52:09;35.80;99.90
843;DHT22;407;48.884;9.126;2023-08-20T11:54:35;35.50;99.90
843;DHT22;407;48.884;9.126;2023-08-20T11:57:03;35.40;99.90
843;DHT22;407;48.884;9.126;2023-08-20T11:59:29;35.60;99.90
843;DHT22;407;48.884;9.126;2023-08-20T12:02:02;36.20;99.90
843;DHT22;407;48.884;9.126;2023-08-20T12:04:31;36.20;99.90
843;DHT22;407;48.884;9.126;2023-08-20T12:07:09;36.20;99.90
843;DHT22;407;48.884;9.126;2023-08-20T12:09:35;35.80;99.90
843;DHT22;407;48.884;9.126;2023-08-20T12:12:01;35.70;99.90
843;DHT22;407;48.884;9.126;2023-08-20T12:14:27;35.30;99.90
843;DHT22;407;48.884;9.126;2023-08-20T12:16:54;35.40;99.90
843;DHT22;407;48.884;9.126;2023-08-20T12:19:20;35.60;99.90
843;DHT22;407;48.884;9.126;2023-08-20T12:21:46;35.70;99.90
843;DHT22;407;48.884;9.126;2023-08-20T12:24:11;35.90;99.90
843;DHT22;407;48.884;9.126;2023-08-20T12:26:38;35.90;99.90
843;DHT22;407;48.884;9.126;2023-08-20T12:29:04;36.00;99.90
843;DHT22;407;48.884;9.126;2023-08-20T12:31:29;36.20;99.90
843;DHT22;407;48.884;9.126;2023-08-20T12:33:55;36.30;99.90
843;DHT22;407;48.884;9.126;2023-08-20T12:36:20;36.40;99.90
843;DHT22;407;48.884;9.126;2023-08-20T12:38:46;36.30;99.90
843;DHT22;407;48.884;9.126;2023-08-20T12:41:11;35.80;99.90
843;DHT22;407;48.884;9.126;2023-08-20T12:43:37;36.10;99.90
843;DHT22;407;48.884;9.126;2023-08-20T12:46:03;36.10;99.90
843;DHT22;407;48.884;9.126;2023-08-20T12:48:29;36.00;99.90
843;DHT22;407;48.884;9.126;2023-08-20T12:50:55;36.20;99.90
843;DHT22;407;48.884;9.126;2023-08-20T12:53:21;36.60;99.90
843;DHT22;407;48.884;9.126;2023-08-20T12:55:46;36.50;99.90
843;DHT22;407;48.884;9.126;2023-08-20T12:58:12;36.40;99.90
843;DHT22;407;48.884;9.126;2023-08-20T13:00:38;36.30;99.90
843;DHT22;407;48.884;9.126;2023-08-20T13:03:04;36.20;99.90
843;DHT22;407;48.884;9.126;2023-08-20T13:05:30;36.10;99.90
843;DHT22;407;48.884;9.126;2023-08-20T13:07:56;36.10;99.90
843;DHT22;407;48.884;9.126;2023-08-20T13:10:22;36.10;99.90
843;DHT22;407;48.884;9.126;2023-08-20T13:12:49;36.10;99.90
843;DHT22;407;48.884;9.126;2023-08-20T13:15:19;35.90;99.90
843;DHT22;407;48.884;9.126;2023-08-20T13:17:47;36.00;99.90
843;DHT22;407;48.884;9.126;2023-08-20T13:20:13;36.30;99.90
843;DHT22;407;48.884;9.126;2023-08-20T13:22:38;36.40;99.90
843;DHT22;407;48.884;9.126;2023-08-20T13:25:04;36.30;99.90
843;DHT22;407;48.884;9.126;2023-08-20T13:27:30;36.20;99.90
843;DHT22;407;48.884;9.126;2023-08-20T13:29:56;36.00;99.90
843;DHT22;407;48.884;9.126;2023-08-20T13:32:22;36.00;99.90
843;DHT22;407;48.884;9.126;2023-08-20T13:34:48;36.10;99.90
843;DHT22;407;48.884;9.126;2023-08-20T13:37:14;36.00;99.90
843;DHT22;407;48.884;9.126;2023-08-20T13:39:39;35.70;99.90
843;DHT22;407;48.884;9.126;2023-08-20T13:42:05;35.70;99.90
843;DHT22;407;48.884;9.126;2023-08-20T13:44:30;36.00;99.90
843;DHT22;407;48.884;9.126;2023-08-20T13:46:56;36.00;99.90
843;DHT22;407;48.884;9.126;2023-08-20T13:49:21;35.80;99.90
843;DHT22;407;48.884;9.126;2023-08-20T13:51:48;35.90;99.90
843;DHT22;407;48.884;9.126;2023-08-20T13:54:13;35.70;99.90
843;DHT22;407;48.884;9.126;2023-08-20T13:56:39;35.80;99.90
843;DHT22;407;48.884;9.126;2023-08-20T13:59:04;36.10;99.90
843;DHT22;407;48.884;9.126;2023-08-20T14:01:30;35.80;99.90
843;DHT22;407;48.884;9.126;2023-08-20T14:03:55;35.80;99.90
843;DHT22;407;48.884;9.126;2023-08-20T14:06:21;35.50;99.90
843;DHT22;407;48.884;9.126;2023-08-20T14:08:47;35.50;99.90
843;DHT22;407;48.884;9.126;2023-08-20T14:11:13;35.50;99.90
843;DHT22;407;48.884;9.126;2023-08-20T14:13:39;35.70;99.90
843;DHT22;407;48.884;9.126;2023-08-20T14:16:05;35.50;99.90
843;DHT22;407;48.884;9.126;2023-08-20T14:18:30;35.30;99.90
843;DHT22;407;48.884;9.126;2023-08-20T14:20:57;35.40;99.90
843;DHT22;407;48.884;9.126;2023-08-20T14:23:23;35.50;99.90
843;DHT22;407;48.884;9.126;2023-08-20T14:25:49;35.50;99.90
843;DHT22;407;48.884;9.126;2023-08-20T14:28:14;35.70;99.90
843;DHT22;407;48.884;9.126;2023-08-20T14:30:40;35.60;99.90
843;DHT22;407;48.884;9.126;2023-08-20T14:33:06;35.50;99.90
843;DHT22;407;48.884;9.126;2023-08-20T14:35:32;35.40;99.90
843;DHT22;407;48.884;9.126;2023-08-20T14:37:58;35.60;99.90
843;DHT22;407;48.884;9.126;2023-08-20T14:40:23;35.50;99.90
843;DHT22;407;48.884;9.126;2023-08-20T14:42:49;35.40;99.90
843;DHT22;407;48.884;9.126;2023-08-20T14:45:15;35.40;99.90
843;DHT22;407;48.884;9.126;2023-08-20T14:47:40;35.50;99.90
843;DHT22;407;48.884;9.126;2023-08-20T14:50:06;35.60;99.90
843;DHT22;407;48.884;9.126;2023-08-20T14:52:32;35.50;99.90
843;DHT22;407;48.884;9.126;2023-08-20T14:54:58;35.40;99.90
843;DHT22;407;48.884;9.126;2023-08-20T14:57:23;35.40;99.90
843;DHT22;407;48.884;9.126;2023-08-20T14:59:50;35.30;99.90
843;DHT22;407;48.884;9.126;2023-08-20T15:02:16;35.20;99.90
843;DHT22;407;48.884;9.126;2023-08-20T15:04:42;35.40;99.90
843;DHT22;407;48.884;9.126;2023-08-20T15:07:07;35.40;99.90
843;DHT22;407;48.884;9.126;2023-08-20T15:09:33;35.30;99.90
843;DHT22;407;48.884;9.126;2023-08-20T15:11:58;34.90;99.90
843;DHT22;407;48.884;9.126;2023-08-20T15:14:24;34.70;99.90
843;DHT22;407;48.884;9.126;2023-08-20T15:16:49;34.70;99.90
843;DHT22;407;48.884;9.126;2023-08-20T15:19:15;34.70;99.90
843;DHT22;407;48.884;9.126;2023-08-20T15:21:41;34.70;99.90
843;DHT22;407;48.884;9.126;2023-08-20T15:24:06;34.90;99.90
843;DHT22;407;48.884;9.126;2023-08-20T15:26:32;35.00;99.90
843;DHT22;407;48.884;9.126;2023-08-20T15:28:57;35.10;99.90
843;DHT22;407;48.884;9.126;2023-08-20T15:31:23;34.90;99.90
843;DHT22;407;48.884;9.126;2023-08-20T15:33:48;34.90;99.90
843;DHT22;407;48.884;9.126;2023-08-20T15:36:14;34.90;99.90
843;DHT22;407;48.884;9.126;2023-08-20T15:38:39;34.90;99.90
843;DHT22;407;48.884;9.126;2023-08-20T15:41:05;34.90;99.90
843;DHT22;407;48.884;9.126;2023-08-20T15:43:31;34.80;99.90
843;DHT22;407;48.884;9.126;2023-08-20T15:45:56;34.90;99.90
843;DHT22;407;48.884;9.126;2023-08-20T15:48:22;34.90;99.90
843;DHT22;407;48.884;9.126;2023-08-20T15:50:47;34.70;99.90
843;DHT22;407;48.884;9.126;2023-08-20T15:53:13;34.50;99.90
843;DHT22;407;48.884;9.126;2023-08-20T15:55:38;34.60;99.90
843;DHT22;407;48.884;9.126;2023-08-20T15:58:04;34.60;99.90
843;DHT22;407;48.884;9.126;2023-08-20T16:00:29;34.70;99.90
843;DHT22;407;48.884;9.126;2023-08-20T16:02:59;34.60;99.90
843;DHT22;407;48.884;9.126;2023-08-20T16:05:25;34.40;99.90
843;DHT22;407;48.884;9.126;2023-08-20T16:07:51;34.40;99.90
843;DHT22;407;48.884;9.126;2023-08-20T16:10:16;34.30;99.90
843;DHT22;407;48.884;9.126;2023-08-20T16:12:43;34.40;99.90
843;DHT22;407;48.884;9.126;2023-08-20T16:15:10;34.50;99.90
843;DHT22;407;48.884;9.126;2023-08-20T16:17:36;34.40;99.90
843;DHT22;407;48.884;9.126;2023-08-20T16:20:02;34.40;99.90
843;DHT22;407;48.884;9.126;2023-08-20T16:22:29;34.40;99.90
843;DHT22;407;48.884;9.126;2023-08-20T16:24:55;34.40;99.90
843;DHT22;407;48.884;9.126;2023-08-20T16:27:21;34.40;99.90
843;DHT22;407;48.884;9.126;2023-08-20T16:29:48;34.30;99.90
843;DHT22;407;48.884;9.126;2023-08-20T16:32:15;34.30;99.90
843;DHT22;407;48.884;9.126;2023-08-20T16:34:41;34.30;99.90
843;DHT22;407;48.884;9.126;2023-08-20T16:37:07;34.30;99.90
843;DHT22;407;48.884;9.126;2023-08-20T16:39:33;34.30;99.90
843;DHT22;407;48.884;9.126;2023-08-20T16:41:58;34.30;99.90
843;DHT22;407;48.884;9.126;2023-08-20T16:44:24;34.30;99.90
843;DHT22;407;48.884;9.126;2023-08-20T16:46:49;34.00;99.90
843;DHT22;407;48.884;9.126;2023-08-20T16:49:15;33.90;99.90
843;DHT22;407;48.884;9.126;2023-08-20T16:51:40;33.80;99.90
843;DHT22;407;48.884;9.126;2023-08-20T16:54:06;33.60;99.90
843;DHT22;407;48.884;9.126;2023-08-20T16:56:33;33.60;99.90
843;DHT22;407;48.884;9.126;2023-08-20T16:58:59;33.60;99.90
843;DHT22;407;48.884;9.126;2023-08-20T17:01:25;33.60;99.90
843;DHT22;407;48.884;9.126;2023-08-20T17:03:51;33.60;99.90
843;DHT22;407;48.884;9.126;2023-08-20T17:06:18;33.60;99.90